createdAt,value
2023-10-06T00:02:08.930Z,5.78
2023-10-06T00:04:40.065Z,6.47
2023-10-06T00:07:09.311Z,5.68
2023-10-06T00:09:36.455Z,6.22
2023-10-06T00:12:06.422Z,5.63
2023-10-06T00:14:42.153Z,5.22
2023-10-06T00:17:18.987Z,4.97
2023-10-06T00:19:46.632Z,5.55
2023-10-06T00:22:16.287Z,5.65
2023-10-06T00:24:45.768Z,5.35
2023-10-06T00:27:12.444Z,5.85
2023-10-06T00:29:39.393Z,5.55
2023-10-06T00:32:24.628Z,5.93
2023-10-06T00:34:54.030Z,6.20
2023-10-06T00:37:23.988Z,7.15
2023-10-06T00:39:51.618Z,6.32
2023-10-06T00:42:20.855Z,6.38
2023-10-06T00:44:48.022Z,6.28
2023-10-06T00:47:15.823Z,6.00
2023-10-06T00:49:44.482Z,5.55
2023-10-06T00:52:13.385Z,6.25
2023-10-06T00:54:44.150Z,6.18
2023-10-06T00:57:13.512Z,6.30
2023-10-06T00:59:40.359Z,5.53
2023-10-06T01:02:10.303Z,5.35
2023-10-06T01:04:43.714Z,6.68
2023-10-06T01:07:10.557Z,6.00
2023-10-06T01:09:37.125Z,5.65
2023-10-06T01:12:07.842Z,6.03
2023-10-06T01:14:36.276Z,6.13
2023-10-06T01:17:21.031Z,5.65
2023-10-06T01:19:50.640Z,5.70
2023-10-06T01:22:29.588Z,5.82
2023-10-06T01:24:56.424Z,6.70
2023-10-06T01:27:28.876Z,6.10
2023-10-06T01:30:15.435Z,6.57
2023-10-06T01:32:50.656Z,5.78
2023-10-06T01:35:17.689Z,5.65
2023-10-06T01:37:44.821Z,6.38
2023-10-06T01:40:23.880Z,5.85
2023-10-06T01:42:50.453Z,5.50
2023-10-06T01:45:22.318Z,6.10
2023-10-06T01:47:56.620Z,5.25
2023-10-06T01:50:28.381Z,5.35
2023-10-06T01:52:57.083Z,7.35
2023-10-06T01:55:25.438Z,7.85
2023-10-06T01:57:59.274Z,6.28
2023-10-06T02:00:42.212Z,7.45
2023-10-06T02:03:11.958Z,7.55
2023-10-06T02:05:41.576Z,6.57
2023-10-06T02:08:10.978Z,7.15
2023-10-06T02:10:38.074Z,7.80
2023-10-06T02:13:09.537Z,8.13
2023-10-06T02:15:35.999Z,8.30
2023-10-06T02:18:02.671Z,8.32
2023-10-06T02:20:29.161Z,8.07
2023-10-06T02:23:01.670Z,8.25
2023-10-06T02:25:29.100Z,8.27
2023-10-06T02:27:57.654Z,8.40
2023-10-06T02:30:42.105Z,8.50
2023-10-06T02:33:08.912Z,8.32
2023-10-06T02:35:47.045Z,8.48
2023-10-06T02:38:13.722Z,8.75
2023-10-06T02:40:46.571Z,8.35
2023-10-06T02:43:21.372Z,8.70
2023-10-06T02:45:47.988Z,8.27
2023-10-06T02:48:18.728Z,8.02
2023-10-06T02:50:47.875Z,8.45
2023-10-06T02:53:14.542Z,7.40
2023-10-06T02:55:44.855Z,7.88
2023-10-06T02:58:30.456Z,7.32
2023-10-06T03:00:57.649Z,6.68
2023-10-06T03:03:28.271Z,7.15
2023-10-06T03:05:56.145Z,6.55
2023-10-06T03:08:23.034Z,6.85
2023-10-06T03:10:50.080Z,6.60
2023-10-06T03:13:17.636Z,6.82
2023-10-06T03:15:47.599Z,6.70
2023-10-06T03:18:14.930Z,6.25
2023-10-06T03:20:42.486Z,7.25
2023-10-06T03:23:25.697Z,6.60
2023-10-06T03:25:57.041Z,6.18
2023-10-06T03:28:37.419Z,7.05
2023-10-06T03:31:19.718Z,7.68
2023-10-06T03:33:49.353Z,6.78
2023-10-06T03:36:27.509Z,7.03
2023-10-06T03:38:57.315Z,6.60
2023-10-06T03:41:33.756Z,6.47
2023-10-06T03:44:05.867Z,6.60
2023-10-06T03:46:39.513Z,7.38
2023-10-06T03:49:06.635Z,8.30
2023-10-06T03:51:38.939Z,7.03
2023-10-06T03:54:05.953Z,7.35
2023-10-06T03:56:33.233Z,7.30
2023-10-06T03:59:01.297Z,7.10
2023-10-06T04:01:28.057Z,8.48
2023-10-06T04:04:01.047Z,8.10
2023-10-06T04:06:27.807Z,7.97
2023-10-06T04:08:54.500Z,8.18
2023-10-06T04:11:21.181Z,7.70
2023-10-06T04:13:47.766Z,8.23
2023-10-06T04:16:15.464Z,7.72
2023-10-06T04:18:42.644Z,8.88
2023-10-06T04:21:12.763Z,7.50
2023-10-06T04:23:45.418Z,7.55
2023-10-06T04:26:14.954Z,7.47
2023-10-06T04:28:43.153Z,7.80
2023-10-06T04:31:09.677Z,7.75
2023-10-06T04:33:36.599Z,8.32
2023-10-06T04:36:09.275Z,8.95
2023-10-06T04:38:38.722Z,7.47
2023-10-06T04:41:10.202Z,8.57
2023-10-06T04:43:37.437Z,7.20
2023-10-06T04:46:06.870Z,18.02
2023-10-06T04:48:33.835Z,10.93
2023-10-06T04:51:04.039Z,10.55
2023-10-06T04:53:31.677Z,8.43
2023-10-06T04:55:58.736Z,7.72
2023-10-06T04:58:25.710Z,8.40
2023-10-06T05:01:00.797Z,6.88
2023-10-06T05:03:27.906Z,7.88
2023-10-06T05:05:57.039Z,7.07
2023-10-06T05:08:25.918Z,7.88
2023-10-06T05:10:53.269Z,8.52
2023-10-06T05:13:20.624Z,8.40
2023-10-06T05:15:47.263Z,8.93
2023-10-06T05:18:22.826Z,14.43
2023-10-06T05:20:49.349Z,8.07
2023-10-06T05:23:16.261Z,8.07
2023-10-06T05:25:45.960Z,8.07
2023-10-06T05:28:12.869Z,8.80
2023-10-06T05:30:39.641Z,8.57
2023-10-06T05:33:06.605Z,7.45
2023-10-06T05:35:37.492Z,8.63
2023-10-06T05:38:14.363Z,9.85
2023-10-06T05:40:45.540Z,8.80
2023-10-06T05:43:17.387Z,7.95
2023-10-06T05:45:44.562Z,8.25
2023-10-06T05:48:11.534Z,7.68
2023-10-06T05:50:38.121Z,7.25
2023-10-06T05:53:14.399Z,7.90
2023-10-06T05:55:44.073Z,7.32
2023-10-06T05:58:15.297Z,7.47
2023-10-06T06:00:52.168Z,7.18
2023-10-06T06:03:22.417Z,6.50
2023-10-06T06:05:49.630Z,6.78
2023-10-06T06:08:16.111Z,6.68
2023-10-06T06:10:42.840Z,6.53
2023-10-06T06:13:09.294Z,6.38
2023-10-06T06:15:40.617Z,5.28
2023-10-06T06:18:07.173Z,6.82
2023-10-06T06:20:33.789Z,7.38
2023-10-06T06:23:00.682Z,6.00
2023-10-06T06:25:30.102Z,6.97
2023-10-06T06:28:00.519Z,6.30
2023-10-06T06:30:27.376Z,6.03
2023-10-06T06:32:55.019Z,5.93
2023-10-06T06:35:22.660Z,6.10
2023-10-06T06:37:52.802Z,6.13
2023-10-06T06:40:22.734Z,5.63
2023-10-06T06:42:49.855Z,5.00
2023-10-06T06:45:16.842Z,5.28
2023-10-06T06:47:43.430Z,5.78
2023-10-06T06:50:12.500Z,5.68
2023-10-06T06:52:43.560Z,4.78
2023-10-06T06:55:18.854Z,5.72
2023-10-06T06:57:45.365Z,5.35
2023-10-06T07:00:17.055Z,5.32
2023-10-06T07:02:47.516Z,4.93
2023-10-06T07:05:14.930Z,5.00
2023-10-06T07:07:44.385Z,5.45
2023-10-06T07:10:14.345Z,4.55
2023-10-06T07:12:44.516Z,4.47
2023-10-06T07:15:16.114Z,4.53
2023-10-06T07:17:44.106Z,4.07
2023-10-06T07:20:15.552Z,4.90
2023-10-06T07:22:42.344Z,4.20
2023-10-06T07:25:11.908Z,5.22
2023-10-06T07:27:39.187Z,4.85
2023-10-06T07:30:12.133Z,3.72
2023-10-06T07:32:42.909Z,4.22
2023-10-06T07:35:10.597Z,4.60
2023-10-06T07:37:37.517Z,4.38
2023-10-06T07:40:05.407Z,4.45
2023-10-06T07:42:32.547Z,3.70
2023-10-06T07:44:59.087Z,4.57
2023-10-06T07:47:25.765Z,3.75
2023-10-06T07:49:52.260Z,3.58
2023-10-06T07:52:18.737Z,3.33
2023-10-06T07:54:45.193Z,4.28
2023-10-06T07:57:14.040Z,3.35
2023-10-06T07:59:40.863Z,3.72
2023-10-06T08:02:07.350Z,4.40
2023-10-06T08:04:34.016Z,3.83
2023-10-06T08:07:01.751Z,4.30
2023-10-06T08:09:28.190Z,3.95
2023-10-06T08:11:57.641Z,4.25
2023-10-06T08:14:26.054Z,4.07
2023-10-06T08:16:52.665Z,3.45
2023-10-06T08:19:19.111Z,4.03
2023-10-06T08:21:46.031Z,3.22
2023-10-06T08:24:12.699Z,4.13
2023-10-06T08:26:39.559Z,3.75
2023-10-06T08:29:06.128Z,3.80
2023-10-06T08:31:32.610Z,3.78
2023-10-06T08:34:06.983Z,3.28
2023-10-06T08:36:34.247Z,3.85
2023-10-06T08:39:02.065Z,3.50
2023-10-06T08:41:36.158Z,3.65
2023-10-06T08:44:03.331Z,3.47
2023-10-06T08:46:32.977Z,3.95
2023-10-06T08:48:59.618Z,3.72
2023-10-06T08:51:27.656Z,3.15
2023-10-06T08:53:56.971Z,3.08
2023-10-06T08:56:23.503Z,3.97
2023-10-06T08:58:50.232Z,4.07
2023-10-06T09:01:19.385Z,3.78
2023-10-06T09:03:48.200Z,3.20
2023-10-06T09:06:15.418Z,3.58
2023-10-06T09:08:43.507Z,3.17
2023-10-06T09:11:11.281Z,2.92
2023-10-06T09:13:37.924Z,3.22
2023-10-06T09:16:05.218Z,3.10
2023-10-06T09:18:35.708Z,3.67
2023-10-06T09:21:17.315Z,3.20
2023-10-06T09:23:44.860Z,3.45
2023-10-06T09:26:13.116Z,3.08
2023-10-06T09:28:50.330Z,3.05
2023-10-06T09:31:16.891Z,3.75
2023-10-06T09:33:44.493Z,3.03
2023-10-06T09:36:40.806Z,4.00
2023-10-06T09:39:15.499Z,3.40
2023-10-06T09:41:42.483Z,3.85
2023-10-06T09:44:10.916Z,3.67
2023-10-06T09:46:40.147Z,3.63
2023-10-06T09:49:07.121Z,3.70
2023-10-06T09:51:34.258Z,2.88
2023-10-06T09:54:01.331Z,3.10
2023-10-06T09:56:29.074Z,3.72
2023-10-06T09:58:56.259Z,3.47
2023-10-06T10:01:25.466Z,3.85
2023-10-06T10:03:56.938Z,3.75
2023-10-06T10:06:24.239Z,3.20
2023-10-06T10:08:52.521Z,3.95
2023-10-06T10:11:42.319Z,3.42
2023-10-06T10:14:27.889Z,3.30
2023-10-06T10:16:55.563Z,4.05
2023-10-06T10:19:23.561Z,3.83
2023-10-06T10:21:50.311Z,3.47
2023-10-06T10:26:53.633Z,3.33
2023-10-06T10:29:20.087Z,3.67
2023-10-06T10:32:08.521Z,3.00
2023-10-06T10:34:35.328Z,4.28
2023-10-06T10:37:07.550Z,4.60
2023-10-06T10:39:41.006Z,4.03
2023-10-06T10:42:07.435Z,4.57
2023-10-06T10:44:34.860Z,6.30
2023-10-06T10:47:03.813Z,4.00
2023-10-06T10:49:34.404Z,3.88
2023-10-06T10:52:03.385Z,3.30
2023-10-06T10:54:32.260Z,3.40
2023-10-06T10:57:06.419Z,3.38
2023-10-06T10:59:51.698Z,3.65
2023-10-06T11:02:19.567Z,3.10
2023-10-06T11:04:47.138Z,3.60
2023-10-06T11:07:16.669Z,3.58
2023-10-06T11:09:48.260Z,4.07
2023-10-06T11:12:23.727Z,3.60
2023-10-06T11:14:52.557Z,3.40
2023-10-06T11:17:21.609Z,4.05
2023-10-06T11:20:00.581Z,3.40
2023-10-06T11:22:29.411Z,4.55
2023-10-06T11:24:59.037Z,3.22
2023-10-06T11:27:25.808Z,3.35
2023-10-06T11:29:58.676Z,3.67
2023-10-06T11:34:52.193Z,3.33
2023-10-06T11:37:26.392Z,3.60
2023-10-06T11:39:58.311Z,3.53
2023-10-06T11:42:24.942Z,3.35
2023-10-06T11:44:53.999Z,3.38
2023-10-06T11:47:29.933Z,3.45
2023-10-06T11:49:57.305Z,3.15
2023-10-06T11:52:24.086Z,3.22
2023-10-06T11:54:50.689Z,3.47
2023-10-06T11:57:17.778Z,3.50
2023-10-06T11:59:50.343Z,3.63
2023-10-06T12:02:16.940Z,3.75
2023-10-06T12:04:44.181Z,3.60
2023-10-06T12:07:23.308Z,3.70
2023-10-06T12:09:50.086Z,3.70
2023-10-06T12:12:18.758Z,3.75
2023-10-06T12:14:45.815Z,3.15
2023-10-06T12:17:18.886Z,2.72
2023-10-06T12:19:45.692Z,3.67
2023-10-06T12:22:14.770Z,4.30
2023-10-06T12:24:43.633Z,3.88
2023-10-06T12:27:10.802Z,7.00
2023-10-06T12:29:37.333Z,4.80
2023-10-06T12:32:05.480Z,3.65
2023-10-06T12:34:32.909Z,3.70
2023-10-06T12:37:03.416Z,3.22
2023-10-06T12:39:36.210Z,3.33
2023-10-06T12:44:31.554Z,3.50
2023-10-06T12:47:04.777Z,3.08
2023-10-06T12:49:34.595Z,3.75
2023-10-06T12:52:01.106Z,3.95
2023-10-06T12:54:27.556Z,3.67
2023-10-06T12:56:54.085Z,3.10
2023-10-06T12:59:20.653Z,3.88
2023-10-06T13:01:49.310Z,3.53
2023-10-06T13:04:16.911Z,3.38
2023-10-06T13:06:43.789Z,14.02
2023-10-06T13:09:18.346Z,4.25
2023-10-06T13:11:44.945Z,5.40
2023-10-06T13:14:11.737Z,3.55
2023-10-06T13:16:38.330Z,3.85
2023-10-06T13:19:05.639Z,3.40
2023-10-06T13:21:32.153Z,4.22
2023-10-06T13:24:02.439Z,4.07
2023-10-06T13:26:42.741Z,5.05
2023-10-06T13:29:10.942Z,4.20
2023-10-06T13:31:38.428Z,3.60
2023-10-06T13:34:05.286Z,4.18
2023-10-06T13:36:32.259Z,3.72
2023-10-06T13:38:58.718Z,4.13
2023-10-06T13:41:25.297Z,4.32
2023-10-06T13:43:51.831Z,3.42
2023-10-06T13:46:18.795Z,3.15
2023-10-06T13:48:45.390Z,4.00
2023-10-06T13:51:15.528Z,3.33
2023-10-06T13:53:42.485Z,3.55
2023-10-06T13:56:09.249Z,4.90
2023-10-06T13:58:35.831Z,4.88
2023-10-06T14:01:02.499Z,4.07
2023-10-06T14:03:30.086Z,3.95
2023-10-06T14:06:01.623Z,3.50
2023-10-06T14:08:29.759Z,4.38
2023-10-06T14:10:57.429Z,3.42
2023-10-06T14:13:26.835Z,3.47
2023-10-06T14:15:56.546Z,4.28
2023-10-06T14:18:27.220Z,3.83
2023-10-06T14:20:58.301Z,3.95
2023-10-06T14:23:26.355Z,2.70
2023-10-06T14:25:54.812Z,4.22
2023-10-06T14:28:23.589Z,4.05
2023-10-06T14:30:52.431Z,4.20
2023-10-06T14:33:39.918Z,3.80
2023-10-06T14:36:06.847Z,3.90
2023-10-06T14:38:34.430Z,3.95
2023-10-06T14:41:21.219Z,3.58
2023-10-06T14:44:07.465Z,3.60
2023-10-06T14:46:35.202Z,3.28
2023-10-06T14:49:04.518Z,4.25
2023-10-06T14:51:31.243Z,3.75
2023-10-06T14:53:58.816Z,3.38
2023-10-06T14:56:25.505Z,3.55
2023-10-06T14:58:54.713Z,3.78
2023-10-06T15:01:25.767Z,3.47
2023-10-06T15:03:52.526Z,4.28
2023-10-06T15:06:20.188Z,3.55
2023-10-06T15:08:49.269Z,4.05
2023-10-06T15:11:18.146Z,4.00
2023-10-06T15:13:48.130Z,4.43
2023-10-06T15:16:17.011Z,4.38
2023-10-06T15:18:44.254Z,3.85
2023-10-06T15:21:13.762Z,3.85
2023-10-06T15:23:40.248Z,3.60
2023-10-06T15:26:08.770Z,3.88
2023-10-06T15:28:39.331Z,4.72
2023-10-06T15:31:06.318Z,3.97
2023-10-06T15:33:33.920Z,4.07
2023-10-06T15:36:04.407Z,3.92
2023-10-06T15:38:32.033Z,3.97
2023-10-06T15:41:03.977Z,4.25
2023-10-06T15:43:34.287Z,4.07
2023-10-06T15:46:04.825Z,3.60
2023-10-06T15:48:33.809Z,4.00
2023-10-06T15:51:00.318Z,3.72
2023-10-06T15:53:27.716Z,3.53
2023-10-06T15:55:54.439Z,4.55
2023-10-06T15:58:21.594Z,4.20
2023-10-06T16:00:48.160Z,5.60
2023-10-06T16:03:17.273Z,5.07
2023-10-06T16:05:44.151Z,4.82
2023-10-06T16:08:10.767Z,4.57
2023-10-06T16:10:37.295Z,4.57
2023-10-06T16:13:05.164Z,4.35
2023-10-06T16:15:31.676Z,4.47
2023-10-06T16:17:58.490Z,5.57
2023-10-06T16:20:30.407Z,4.70
2023-10-06T16:22:58.727Z,3.95
2023-10-06T16:25:25.868Z,4.82
2023-10-06T16:27:53.429Z,4.55
2023-10-06T16:30:23.085Z,4.93
2023-10-06T16:32:50.682Z,8.20
2023-10-06T16:35:18.855Z,4.30
2023-10-06T16:37:45.424Z,3.60
2023-10-06T16:40:13.835Z,4.25
2023-10-06T16:42:42.198Z,4.60
2023-10-06T16:45:11.572Z,4.10
2023-10-06T16:47:39.072Z,4.10
2023-10-06T16:50:08.868Z,3.72
2023-10-06T16:52:38.497Z,4.68
2023-10-06T16:55:07.277Z,4.15
2023-10-06T16:57:34.369Z,5.43
2023-10-06T17:00:05.464Z,4.80
2023-10-06T17:02:32.480Z,7.90
2023-10-06T17:04:59.146Z,5.78
2023-10-06T17:07:25.627Z,5.28
2023-10-06T17:09:52.177Z,5.65
2023-10-06T17:12:18.701Z,5.80
2023-10-06T17:14:45.678Z,5.13
2023-10-06T17:17:12.699Z,5.15
2023-10-06T17:19:40.215Z,4.97
2023-10-06T17:22:09.929Z,5.30
2023-10-06T17:24:36.502Z,5.40
2023-10-06T17:27:04.749Z,5.07
2023-10-06T17:29:31.274Z,5.53
2023-10-06T17:31:58.803Z,4.70
2023-10-06T17:34:25.737Z,5.93
2023-10-06T17:37:03.030Z,5.10
2023-10-06T17:39:34.862Z,5.32
2023-10-06T17:42:01.368Z,5.55
2023-10-06T17:44:28.741Z,4.55
2023-10-06T17:46:55.374Z,4.18
2023-10-06T17:49:21.880Z,4.60
2023-10-06T17:51:48.409Z,5.20
2023-10-06T17:54:14.846Z,4.57
2023-10-06T17:56:41.778Z,4.93
2023-10-06T17:59:10.765Z,5.00
2023-10-06T18:01:37.715Z,5.15
2023-10-06T18:04:04.670Z,5.07
2023-10-06T18:06:31.723Z,5.38
2023-10-06T18:08:58.230Z,5.32
2023-10-06T18:11:24.759Z,4.38
2023-10-06T18:13:51.222Z,4.45
2023-10-06T18:16:17.882Z,5.38
2023-10-06T18:18:44.501Z,5.63
2023-10-06T18:21:11.025Z,6.05
2023-10-06T18:23:37.550Z,6.60
2023-10-06T18:26:10.538Z,8.05
2023-10-06T18:28:38.202Z,7.78
2023-10-06T18:31:04.724Z,7.85
2023-10-06T18:33:31.236Z,6.20
2023-10-06T18:35:57.818Z,5.97
2023-10-06T18:38:24.396Z,5.65
2023-10-06T18:40:57.638Z,5.13
2023-10-06T18:43:25.658Z,4.97
2023-10-06T18:45:56.444Z,5.88
2023-10-06T18:48:24.503Z,4.85
2023-10-06T18:50:54.768Z,5.20
2023-10-06T18:53:21.344Z,5.68
2023-10-06T18:55:51.570Z,5.40
2023-10-06T18:58:19.233Z,4.40
2023-10-06T19:00:49.466Z,5.50
2023-10-06T19:03:17.422Z,4.70
2023-10-06T19:05:48.875Z,5.57
2023-10-06T19:08:16.300Z,4.85
2023-10-06T19:10:46.665Z,4.90
2023-10-06T19:13:15.034Z,5.25
2023-10-06T19:15:43.517Z,4.82
2023-10-06T19:18:13.167Z,5.68
2023-10-06T19:20:40.994Z,5.40
2023-10-06T19:23:10.774Z,5.55
2023-10-06T19:25:43.218Z,5.40
2023-10-06T19:28:12.902Z,5.60
2023-10-06T19:30:39.887Z,5.75
2023-10-06T19:33:06.530Z,5.50
2023-10-06T19:35:33.230Z,5.43
2023-10-06T19:37:59.715Z,6.40
2023-10-06T19:40:26.289Z,4.55
2023-10-06T19:42:53.102Z,5.75
2023-10-06T19:45:19.668Z,6.28
2023-10-06T19:47:46.203Z,5.47
2023-10-06T19:50:13.237Z,5.60
2023-10-06T19:52:40.697Z,5.88
2023-10-06T19:55:11.299Z,5.38
2023-10-06T19:57:37.934Z,5.55
2023-10-06T20:00:13.960Z,5.30
2023-10-06T20:02:41.867Z,5.60
2023-10-06T20:05:11.058Z,5.45
2023-10-06T20:07:37.665Z,5.28
2023-10-06T20:10:04.300Z,6.30
2023-10-06T20:12:30.900Z,6.57
2023-10-06T20:14:58.025Z,8.05
2023-10-06T20:17:24.887Z,7.50
2023-10-06T20:19:52.601Z,8.45
2023-10-06T20:22:19.928Z,7.57
2023-10-06T20:24:46.485Z,7.28
2023-10-06T20:27:13.404Z,6.72
2023-10-06T20:29:40.496Z,6.10
2023-10-06T20:32:09.254Z,6.63
2023-10-06T20:34:36.414Z,6.53
2023-10-06T20:37:03.043Z,6.75
2023-10-06T20:39:29.719Z,7.32
2023-10-06T20:41:56.257Z,7.78
2023-10-06T20:44:23.615Z,7.43
2023-10-06T20:46:52.262Z,6.00
2023-10-06T20:49:20.306Z,8.00
2023-10-06T20:51:49.425Z,7.40
2023-10-06T20:54:16.897Z,7.78
2023-10-06T20:56:43.865Z,7.70
2023-10-06T20:59:10.649Z,8.15
2023-10-06T21:01:37.309Z,7.15
2023-10-06T21:04:06.902Z,7.18
2023-10-06T21:06:36.621Z,7.25
2023-10-06T21:09:05.753Z,7.85
2023-10-06T21:11:35.129Z,7.72
2023-10-06T21:14:01.889Z,6.47
2023-10-06T21:16:28.588Z,6.93
2023-10-06T21:18:55.367Z,8.32
2023-10-06T21:21:23.069Z,6.95
2023-10-06T21:23:49.665Z,7.03
2023-10-06T21:26:16.140Z,6.55
2023-10-06T21:28:42.738Z,8.00
2023-10-06T21:31:09.279Z,6.80
2023-10-06T21:33:36.053Z,6.63
2023-10-06T21:36:05.449Z,7.25
2023-10-06T21:38:33.093Z,7.75
2023-10-06T21:41:00.230Z,7.43
2023-10-06T21:43:27.180Z,7.60
2023-10-06T21:45:53.819Z,7.78
2023-10-06T21:48:20.932Z,9.10
2023-10-06T21:50:48.656Z,6.80
2023-10-06T21:53:15.540Z,7.03
2023-10-06T21:55:42.111Z,7.78
2023-10-06T21:58:08.603Z,7.82
2023-10-06T22:00:46.238Z,8.20
2023-10-06T22:03:13.651Z,7.57
2023-10-06T22:05:43.192Z,8.18
2023-10-06T22:08:09.899Z,7.22
2023-10-06T22:10:37.244Z,7.53
2023-10-06T22:13:04.365Z,8.75
2023-10-06T22:15:31.586Z,8.07
2023-10-06T22:18:01.197Z,8.45
2023-10-06T22:20:31.958Z,9.13
2023-10-06T22:23:01.900Z,9.05
2023-10-06T22:25:28.578Z,8.40
2023-10-06T22:27:56.100Z,8.10
2023-10-06T22:30:23.444Z,9.57
2023-10-06T22:32:50.239Z,7.93
2023-10-06T22:35:17.626Z,8.18
2023-10-06T22:37:44.327Z,7.70
2023-10-06T22:40:17.883Z,9.00
2023-10-06T22:42:49.085Z,8.88
2023-10-06T22:45:16.722Z,8.20
2023-10-06T22:47:44.132Z,8.65
2023-10-06T22:50:12.982Z,9.20
2023-10-06T22:52:40.243Z,9.73
2023-10-06T22:55:07.704Z,11.25
2023-10-06T22:57:35.225Z,10.15
2023-10-06T23:00:01.713Z,11.55
2023-10-06T23:02:28.377Z,11.35
2023-10-06T23:04:55.005Z,11.27
2023-10-06T23:07:21.992Z,10.07
2023-10-06T23:09:48.711Z,12.95
2023-10-06T23:12:15.326Z,11.60
2023-10-06T23:14:43.474Z,12.27
2023-10-06T23:17:10.994Z,12.45
2023-10-06T23:19:37.605Z,10.88
2023-10-06T23:22:04.268Z,10.38
2023-10-06T23:24:49.287Z,10.23
2023-10-06T23:27:16.859Z,10.93
2023-10-06T23:29:43.803Z,10.27
2023-10-06T23:32:10.729Z,9.40
2023-10-06T23:34:39.174Z,10.10
2023-10-06T23:37:06.927Z,10.68
2023-10-06T23:39:39.574Z,10.02
2023-10-06T23:42:25.185Z,9.13
2023-10-06T23:44:51.700Z,10.38
2023-10-06T23:47:20.179Z,9.88
2023-10-06T23:49:49.669Z,9.88
2023-10-06T23:52:16.383Z,19.63
2023-10-06T23:54:43.496Z,11.07
2023-10-06T23:57:16.149Z,11.10
2023-10-06T23:59:49.365Z,11.30
